UUBC

Grabtsevo Airport

Kaluga, Russian Federation
TAF UUBC 221348Z 2215/2224 VRB01MPS 9999 SCT020 TEMPO 2221/2224 3500 BR BKN011
Issued Valid From Valid To
Jan-22 @ 13:48 UTC
(3 hours ago)
Jan-22 @ 15:00 UTC
(2 hours ago)
Jan-23 @ 00:00 UTC
(in 7 hours)
Jan-22 @ 15:00 to Jan-23 @ 00:00
TAF UUBC 221348Z 2215/2224 VRB01MPS 9999 SCT020
Wind Visibility Clouds
Variable at 2 knots 10,000+ meters
  • Scattered at 2,000' AGL
Temporary Jan-22 @ 21:00 to Jan-23 @ 00:00
TEMPO 2221/2224 3500 BR BKN011
Visibility Clouds Conditions
3,492 meters
  • Broken at 1,100' AGL
  • Mist
TAF UUBC 221348Z 2215/2224 VRB01MPS 9999 SCT020 TEMPO 2221/2224 3500 BR BKN011
Issued Jan-22 @ 13:48 UTC
(3 hours ago)
Valid From Jan-22 @ 15:00 UTC
(2 hours ago)
Valid To Jan-23 @ 00:00 UTC
(in 7 hours)
Jan-22 @ 15:00 - Jan-23 @ 00:00
Wind Visibility
Variable at 2 knots 10,000+ meters
Clouds
  • Scattered at 2,000' AGL
Temporary Jan-22 @ 21:00 - Jan-23 @ 00:00
Clouds
  • Broken at 1,100' AGL
Conditions
  • Mist